createdAt,value
2022-07-27T00:00:15.989Z,67.90
2022-07-27T00:02:42.478Z,68.60
2022-07-27T00:05:08.966Z,67.60
2022-07-27T00:07:35.549Z,67.60
2022-07-27T00:10:03.686Z,67.60
2022-07-27T00:12:30.145Z,67.70
2022-07-27T00:14:56.585Z,67.70
2022-07-27T00:17:23.047Z,67.90
2022-07-27T00:19:49.492Z,67.70
2022-07-27T00:22:15.936Z,68.50
2022-07-27T00:24:42.379Z,67.70
2022-07-27T00:27:08.811Z,67.80
2022-07-27T00:29:35.284Z,68.10
2022-07-27T00:32:01.736Z,67.60
2022-07-27T00:34:28.174Z,68.30
2022-07-27T00:36:54.613Z,67.60
2022-07-27T00:39:21.068Z,67.60
2022-07-27T00:41:47.508Z,67.60
2022-07-27T00:44:14.007Z,67.70
2022-07-27T00:46:40.504Z,67.70
2022-07-27T00:49:07.138Z,67.70
2022-07-27T00:51:33.697Z,67.80
2022-07-27T00:54:00.156Z,67.80
2022-07-27T00:56:26.623Z,67.70
2022-07-27T00:58:53.083Z,67.70
2022-07-27T01:01:19.602Z,67.70
2022-07-27T01:03:46.124Z,68.00
2022-07-27T01:06:14.506Z,67.80
2022-07-27T01:08:41.050Z,67.60
2022-07-27T01:11:07.489Z,67.80
2022-07-27T01:13:33.965Z,67.80
2022-07-27T01:16:00.710Z,67.80
2022-07-27T01:18:27.219Z,67.70
2022-07-27T01:20:53.663Z,67.80
2022-07-27T01:23:20.112Z,67.80
2022-07-27T01:25:46.569Z,67.90
2022-07-27T01:28:13.021Z,67.90
2022-07-27T01:30:39.471Z,67.80
2022-07-27T01:33:05.950Z,67.70
2022-07-27T01:35:32.378Z,67.80
2022-07-27T01:37:58.865Z,67.80
2022-07-27T01:40:25.305Z,67.90
2022-07-27T01:42:51.761Z,67.80
2022-07-27T01:45:18.207Z,67.80
2022-07-27T01:47:44.677Z,67.80
2022-07-27T01:50:11.126Z,67.80
2022-07-27T01:52:37.561Z,67.90
2022-07-27T01:55:04.015Z,67.80
2022-07-27T01:57:30.506Z,67.90
2022-07-27T01:59:56.988Z,67.90
2022-07-27T02:02:23.439Z,67.80
2022-07-27T02:04:49.930Z,67.90
2022-07-27T02:07:16.428Z,67.90
2022-07-27T02:09:42.873Z,67.90
2022-07-27T02:12:09.305Z,67.90
2022-07-27T02:14:35.764Z,67.90
2022-07-27T02:17:02.232Z,67.90
2022-07-27T02:19:28.823Z,68.00
2022-07-27T02:21:55.275Z,68.00
2022-07-27T02:24:21.744Z,68.00
2022-07-27T02:26:49.511Z,67.30
2022-07-27T02:29:16.168Z,68.10
2022-07-27T02:31:42.634Z,67.90
2022-07-27T02:34:09.105Z,67.90
2022-07-27T02:36:35.570Z,68.00
2022-07-27T02:39:02.082Z,68.00
2022-07-27T02:41:28.510Z,68.00
2022-07-27T02:43:54.965Z,68.00
2022-07-27T02:46:21.468Z,68.00
2022-07-27T02:48:48.023Z,68.10
2022-07-27T02:51:14.489Z,68.30
2022-07-27T02:53:40.976Z,68.20
2022-07-27T02:56:07.420Z,68.00
2022-07-27T02:58:33.872Z,68.90
2022-07-27T03:01:00.343Z,67.40
2022-07-27T03:03:36.345Z,68.50
2022-07-27T03:06:03.797Z,68.90
2022-07-27T03:08:30.242Z,68.10
2022-07-27T03:10:56.699Z,68.30
2022-07-27T03:13:23.177Z,68.10
2022-07-27T03:15:49.672Z,69.20
2022-07-27T03:18:16.213Z,68.00
2022-07-27T03:20:42.670Z,68.10
2022-07-27T03:23:09.130Z,68.20
2022-07-27T03:25:35.572Z,68.20
2022-07-27T03:28:04.258Z,68.10
2022-07-27T03:30:31.296Z,68.10
2022-07-27T03:32:57.755Z,68.20
2022-07-27T03:35:24.221Z,68.50
2022-07-27T03:37:50.679Z,68.20
2022-07-27T03:40:17.156Z,68.20
2022-07-27T03:42:43.590Z,68.30
2022-07-27T03:45:10.056Z,67.60
2022-07-27T03:47:36.499Z,68.20
2022-07-27T03:50:03.006Z,68.20
2022-07-27T03:52:29.471Z,68.10
2022-07-27T03:54:55.925Z,68.20
2022-07-27T03:57:22.372Z,68.20
2022-07-27T03:59:48.871Z,68.20
2022-07-27T04:02:15.379Z,68.20
2022-07-27T04:04:41.867Z,68.20
2022-07-27T04:07:08.337Z,68.20
2022-07-27T04:09:34.822Z,68.30
2022-07-27T04:12:01.264Z,68.70
2022-07-27T04:14:29.179Z,68.30
2022-07-27T04:16:55.735Z,68.30
2022-07-27T04:19:22.250Z,68.10
2022-07-27T04:21:48.698Z,67.60
2022-07-27T04:24:15.183Z,68.30
2022-07-27T04:26:41.636Z,68.10
2022-07-27T04:29:08.114Z,68.40
2022-07-27T04:31:34.567Z,68.20
2022-07-27T04:34:01.048Z,68.30
2022-07-27T04:36:27.529Z,68.50
2022-07-27T04:38:53.984Z,68.70
2022-07-27T04:41:20.427Z,68.40
2022-07-27T04:43:46.890Z,68.40
2022-07-27T04:46:15.309Z,68.30
2022-07-27T04:48:42.188Z,68.40
2022-07-27T04:51:16.045Z,68.60
2022-07-27T04:53:57.724Z,67.90
2022-07-27T04:56:25.014Z,68.40
2022-07-27T04:58:51.461Z,68.40
2022-07-27T05:01:17.916Z,68.30
2022-07-27T05:03:44.486Z,68.40
2022-07-27T05:06:11.020Z,68.50
2022-07-27T05:08:37.492Z,68.40
2022-07-27T05:11:03.958Z,68.50
2022-07-27T05:13:30.408Z,68.20
2022-07-27T05:15:56.884Z,68.50
2022-07-27T05:18:23.350Z,68.40
2022-07-27T05:20:50.421Z,68.40
2022-07-27T05:23:17.089Z,68.40
2022-07-27T05:25:43.569Z,68.40
2022-07-27T05:28:09.996Z,68.40
2022-07-27T05:30:36.458Z,68.40
2022-07-27T05:33:02.922Z,68.40
2022-07-27T05:35:29.391Z,68.30
2022-07-27T05:37:55.824Z,68.30
2022-07-27T05:40:22.296Z,69.30
2022-07-27T05:42:48.759Z,68.60
2022-07-27T05:45:15.242Z,68.50
2022-07-27T05:47:41.695Z,68.40
2022-07-27T05:50:08.170Z,68.60
2022-07-27T05:52:34.621Z,68.40
2022-07-27T05:55:01.103Z,68.30
2022-07-27T05:57:27.581Z,68.50
2022-07-27T05:59:54.023Z,68.50
2022-07-27T06:02:20.523Z,68.40
2022-07-27T06:04:46.995Z,68.40
2022-07-27T06:07:13.482Z,68.50
2022-07-27T06:09:39.955Z,70.00
2022-07-27T06:12:06.418Z,69.20
2022-07-27T06:14:32.873Z,68.60
2022-07-27T06:16:59.344Z,68.60
2022-07-27T06:19:25.863Z,68.50
2022-07-27T06:22:02.793Z,69.10
2022-07-27T06:24:29.357Z,68.50
2022-07-27T06:26:55.893Z,68.50
2022-07-27T06:29:22.375Z,68.00
2022-07-27T06:31:48.914Z,68.60
2022-07-27T06:34:15.404Z,69.00
2022-07-27T06:36:43.686Z,68.50
2022-07-27T06:39:10.472Z,69.60
2022-07-27T06:41:37.138Z,67.90
2022-07-27T06:44:03.645Z,68.60
2022-07-27T06:46:30.194Z,68.70
2022-07-27T06:48:56.735Z,68.50
2022-07-27T06:51:23.658Z,68.50
2022-07-27T06:53:50.127Z,68.50
2022-07-27T06:56:16.643Z,68.50
2022-07-27T06:58:43.086Z,68.60
2022-07-27T07:01:09.615Z,68.50
2022-07-27T07:03:36.201Z,68.60
2022-07-27T07:06:02.735Z,68.50
2022-07-27T07:08:29.198Z,68.70
2022-07-27T07:10:55.657Z,68.70
2022-07-27T07:13:22.101Z,68.60
2022-07-27T07:15:48.629Z,68.60
2022-07-27T07:18:15.165Z,68.60
2022-07-27T07:20:41.650Z,68.60
2022-07-27T07:23:08.107Z,68.70
2022-07-27T07:25:34.584Z,68.00
2022-07-27T07:28:01.042Z,68.70
2022-07-27T07:30:27.502Z,68.70
2022-07-27T07:32:53.971Z,68.60
2022-07-27T07:35:20.433Z,68.60
2022-07-27T07:37:50.325Z,68.70
2022-07-27T07:40:43.458Z,68.70
2022-07-27T07:43:03.831Z,68.70
2022-07-27T07:45:30.299Z,68.70
2022-07-27T07:47:56.733Z,68.70
2022-07-27T07:50:23.206Z,68.70
2022-07-27T07:52:49.648Z,68.70
2022-07-27T07:55:16.107Z,68.70
2022-07-27T07:57:42.606Z,68.70
2022-07-27T08:00:09.081Z,68.70
2022-07-27T08:02:35.556Z,68.80
2022-07-27T08:05:02.075Z,69.40
2022-07-27T08:07:28.515Z,68.10
2022-07-27T08:09:54.969Z,68.90
2022-07-27T08:12:21.413Z,68.70
2022-07-27T08:14:47.968Z,68.70
2022-07-27T08:17:14.418Z,69.50
2022-07-27T08:19:40.885Z,68.70
2022-07-27T08:22:07.410Z,68.80
2022-07-27T08:24:33.850Z,68.70
2022-07-27T08:27:00.305Z,68.80
2022-07-27T08:29:36.589Z,68.80
2022-07-27T08:32:03.709Z,68.80
2022-07-27T08:34:32.652Z,68.10
2022-07-27T08:36:59.146Z,68.80
2022-07-27T08:40:20.048Z,70.40
2022-07-27T08:42:12.065Z,69.10
2022-07-27T08:44:38.537Z,68.80
2022-07-27T08:47:05.169Z,68.80
2022-07-27T08:49:42.355Z,68.90
2022-07-27T08:52:09.840Z,68.90
2022-07-27T08:54:36.286Z,68.90
2022-07-27T08:57:02.747Z,68.90
2022-07-27T08:59:29.210Z,68.80
2022-07-27T09:01:55.749Z,68.90
2022-07-27T09:04:22.324Z,68.90
2022-07-27T09:06:54.146Z,68.90
2022-07-27T09:09:20.887Z,68.90
2022-07-27T09:11:47.362Z,69.50
2022-07-27T09:14:13.822Z,68.90
2022-07-27T09:17:28.600Z,68.90
2022-07-27T09:19:26.750Z,68.90
2022-07-27T09:21:54.382Z,68.90
2022-07-27T09:24:45.563Z,68.90
2022-07-27T09:27:07.271Z,68.90
2022-07-27T09:29:33.729Z,69.00
2022-07-27T09:32:00.237Z,68.40
2022-07-27T09:34:26.688Z,68.20
2022-07-27T09:36:53.209Z,69.00
2022-07-27T09:39:19.697Z,69.00
2022-07-27T09:41:46.239Z,68.20
2022-07-27T09:47:00.655Z,68.90
2022-07-27T09:49:27.237Z,68.90
2022-07-27T09:52:02.626Z,68.90
2022-07-27T09:54:29.438Z,68.90
2022-07-27T09:56:55.912Z,68.90
2022-07-27T09:59:22.378Z,68.90
2022-07-27T10:01:54.284Z,68.90
2022-07-27T10:04:21.325Z,68.90
2022-07-27T10:07:02.090Z,68.90
2022-07-27T10:09:29.184Z,69.00
2022-07-27T10:11:55.654Z,69.10
2022-07-27T10:14:22.122Z,69.10
2022-07-27T10:16:48.695Z,68.40
2022-07-27T10:19:15.146Z,68.90
2022-07-27T10:21:41.600Z,68.90
2022-07-27T10:24:08.092Z,68.90
2022-07-27T10:26:34.556Z,68.40
2022-07-27T10:29:01.015Z,68.40
2022-07-27T10:31:27.595Z,69.00
2022-07-27T10:33:54.114Z,69.90
2022-07-27T10:36:20.649Z,69.50
2022-07-27T10:38:47.154Z,69.30
2022-07-27T10:41:13.642Z,68.30
2022-07-27T10:43:40.110Z,68.30
2022-07-27T10:46:06.731Z,69.80
2022-07-27T10:48:33.280Z,68.30
2022-07-27T10:50:59.814Z,69.20
2022-07-27T10:53:26.268Z,68.90
2022-07-27T10:55:52.713Z,69.00
2022-07-27T10:58:19.264Z,68.90
2022-07-27T11:00:50.028Z,68.50
2022-07-27T11:03:19.812Z,69.10
2022-07-27T11:06:21.704Z,69.20
2022-07-27T11:08:39.622Z,68.30
2022-07-27T11:11:11.470Z,69.10
2022-07-27T11:13:38.891Z,69.00
2022-07-27T11:18:53.120Z,68.90
2022-07-27T11:21:25.833Z,68.90
2022-07-27T11:23:53.070Z,68.90
2022-07-27T11:26:19.543Z,69.10
2022-07-27T11:28:46.019Z,68.90
2022-07-27T11:31:12.529Z,69.20
2022-07-27T11:33:39.079Z,68.30
2022-07-27T11:36:05.548Z,68.90
2022-07-27T11:38:32.013Z,69.10
2022-07-27T11:41:11.482Z,69.00
2022-07-27T11:43:45.298Z,69.00
2022-07-27T11:46:12.426Z,69.10
2022-07-27T11:49:03.996Z,69.00
2022-07-27T11:51:25.545Z,67.60
2022-07-27T11:53:52.035Z,69.00
2022-07-27T11:56:18.871Z,68.50
2022-07-27T11:58:45.337Z,69.10
2022-07-27T12:01:11.807Z,68.30
2022-07-27T12:03:46.853Z,69.10
2022-07-27T12:06:14.119Z,69.10
2022-07-27T12:08:40.576Z,68.90
2022-07-27T12:11:07.025Z,69.00
2022-07-27T12:13:33.490Z,69.00
2022-07-27T12:15:59.974Z,69.00
2022-07-27T12:18:26.421Z,69.00
2022-07-27T12:20:52.895Z,68.90
2022-07-27T12:23:19.403Z,69.00
2022-07-27T12:25:45.838Z,69.00
2022-07-27T12:28:12.303Z,69.00
2022-07-27T12:30:38.852Z,69.00
2022-07-27T12:33:05.361Z,69.10
2022-07-27T12:35:36.777Z,69.80
2022-07-27T12:38:05.356Z,69.10
2022-07-27T12:40:31.845Z,69.20
2022-07-27T12:42:58.310Z,69.00
2022-07-27T12:45:24.774Z,69.10
2022-07-27T12:47:52.264Z,69.10
2022-07-27T12:50:18.757Z,69.00
2022-07-27T12:52:45.244Z,69.10
2022-07-27T12:55:15.697Z,69.40
2022-07-27T12:57:55.057Z,69.10
2022-07-27T13:00:22.503Z,69.60
2022-07-27T13:02:49.166Z,69.20
2022-07-27T13:05:18.347Z,69.20
2022-07-27T13:07:44.828Z,69.30
2022-07-27T13:10:11.676Z,69.10
2022-07-27T13:12:38.160Z,69.10
2022-07-27T13:15:04.607Z,69.10
2022-07-27T13:17:31.073Z,69.10
2022-07-27T13:19:57.530Z,69.10
2022-07-27T13:22:23.988Z,69.60
2022-07-27T13:24:50.431Z,69.30
2022-07-27T13:27:16.943Z,70.00
2022-07-27T13:29:43.382Z,69.40
2022-07-27T13:32:09.945Z,69.40
2022-07-27T13:34:36.454Z,69.10
2022-07-27T13:37:03.351Z,69.10
2022-07-27T13:39:29.835Z,68.50
2022-07-27T13:42:00.813Z,69.10
2022-07-27T13:44:57.488Z,69.10
2022-07-27T13:47:13.706Z,69.10
2022-07-27T13:49:40.253Z,69.10
2022-07-27T13:52:06.731Z,69.70
2022-07-27T13:54:33.198Z,70.00
2022-07-27T13:56:59.668Z,69.20
2022-07-27T13:59:26.171Z,69.10
2022-07-27T14:01:52.805Z,69.10
2022-07-27T14:04:22.744Z,69.20
2022-07-27T14:06:49.239Z,69.10
2022-07-27T14:09:17.805Z,69.00
2022-07-27T14:11:50.863Z,68.90
2022-07-27T14:14:21.779Z,69.00
2022-07-27T14:16:53.240Z,69.00
2022-07-27T14:19:20.354Z,68.90
2022-07-27T14:21:47.704Z,69.00
2022-07-27T14:24:14.166Z,68.30
2022-07-27T14:26:40.664Z,69.00
2022-07-27T14:29:07.118Z,69.00
2022-07-27T14:31:33.724Z,69.10
2022-07-27T14:34:00.284Z,69.00
2022-07-27T14:36:26.746Z,69.00
2022-07-27T14:38:53.195Z,68.90
2022-07-27T14:41:19.673Z,69.00
2022-07-27T14:43:46.110Z,68.90
2022-07-27T14:46:12.645Z,68.90
2022-07-27T14:51:25.636Z,68.20
2022-07-27T14:53:52.191Z,69.40
2022-07-27T14:56:20.240Z,70.50
2022-07-27T14:58:46.715Z,68.90
2022-07-27T15:01:16.579Z,68.20
2022-07-27T15:03:43.683Z,68.90
2022-07-27T15:06:10.176Z,68.90
2022-07-27T15:08:36.627Z,69.00
2022-07-27T15:11:03.149Z,69.00
2022-07-27T15:13:29.597Z,69.00
2022-07-27T15:15:56.121Z,68.80
2022-07-27T15:18:22.672Z,68.90
2022-07-27T15:20:49.145Z,68.90
2022-07-27T15:23:15.621Z,68.80
2022-07-27T15:25:42.076Z,68.20
2022-07-27T15:28:08.535Z,68.90
2022-07-27T15:30:38.351Z,68.80
2022-07-27T15:33:08.213Z,68.90
2022-07-27T15:35:34.670Z,69.10
2022-07-27T15:38:01.150Z,68.90
2022-07-27T15:40:27.600Z,68.80
2022-07-27T15:42:54.109Z,68.80
2022-07-27T15:45:20.639Z,69.00
2022-07-27T15:47:52.303Z,68.20
2022-07-27T15:50:19.149Z,69.10
2022-07-27T15:52:45.613Z,70.10
2022-07-27T15:55:12.057Z,68.90
2022-07-27T15:57:38.638Z,69.00
2022-07-27T16:00:05.115Z,68.90
2022-07-27T16:02:32.681Z,69.10
2022-07-27T16:05:00.773Z,69.60
2022-07-27T16:07:27.236Z,68.40
2022-07-27T16:10:07.080Z,69.00
2022-07-27T16:12:37.859Z,69.00
2022-07-27T16:15:04.897Z,69.00
2022-07-27T16:17:31.378Z,68.80
2022-07-27T16:19:57.842Z,68.30
2022-07-27T16:22:24.362Z,69.00
2022-07-27T16:24:50.858Z,68.40
2022-07-27T16:27:17.352Z,69.20
2022-07-27T16:29:43.817Z,69.10
2022-07-27T16:32:10.303Z,69.20
2022-07-27T16:34:36.809Z,69.40
2022-07-27T16:37:03.290Z,68.30
2022-07-27T16:39:29.737Z,69.20
2022-07-27T16:41:56.195Z,68.50
2022-07-27T16:44:22.715Z,69.00
2022-07-27T16:46:49.195Z,69.00
2022-07-27T16:49:15.992Z,69.00
2022-07-27T16:51:42.748Z,69.00
2022-07-27T16:54:09.273Z,69.00
2022-07-27T16:56:35.761Z,69.20
2022-07-27T16:59:02.231Z,69.00
2022-07-27T17:01:28.734Z,69.40
2022-07-27T17:03:55.372Z,69.00
2022-07-27T17:06:21.979Z,69.20
2022-07-27T17:08:48.470Z,69.20
2022-07-27T17:11:14.926Z,69.00
2022-07-27T17:13:46.207Z,69.00
2022-07-27T17:16:15.700Z,69.00
2022-07-27T17:18:42.207Z,69.00
2022-07-27T17:21:08.659Z,68.50
2022-07-27T17:23:35.109Z,69.00
2022-07-27T17:26:02.443Z,69.00
2022-07-27T17:28:28.889Z,69.00
2022-07-27T17:30:55.427Z,69.10
2022-07-27T17:33:21.936Z,69.10
2022-07-27T17:35:48.437Z,69.10
2022-07-27T17:38:14.917Z,69.10
2022-07-27T17:40:41.440Z,69.20
2022-07-27T17:43:07.951Z,69.40
2022-07-27T17:45:34.415Z,69.20
2022-07-27T17:48:00.890Z,69.10
2022-07-27T17:50:27.319Z,68.40
2022-07-27T17:52:53.905Z,69.70
2022-07-27T17:55:20.368Z,69.10
2022-07-27T17:57:46.839Z,69.10
2022-07-27T18:00:13.312Z,69.10
2022-07-27T18:02:39.793Z,69.10
2022-07-27T18:05:06.233Z,69.30
2022-07-27T18:07:39.310Z,69.10
2022-07-27T18:10:06.952Z,69.10
2022-07-27T18:12:33.455Z,69.10
2022-07-27T18:14:59.921Z,69.10
2022-07-27T18:17:26.378Z,69.10
2022-07-27T18:19:52.828Z,69.10
2022-07-27T18:22:19.330Z,69.20
2022-07-27T18:24:45.803Z,69.20
2022-07-27T18:27:12.272Z,69.40
2022-07-27T18:29:38.726Z,69.20
2022-07-27T18:32:05.187Z,69.10
2022-07-27T18:34:31.627Z,69.10
2022-07-27T18:36:58.098Z,69.20
2022-07-27T18:39:28.993Z,69.70
2022-07-27T18:42:00.512Z,69.20
2022-07-27T18:44:27.001Z,68.50
2022-07-27T18:46:53.644Z,69.50
2022-07-27T18:49:21.288Z,68.60
2022-07-27T18:51:47.821Z,69.20
2022-07-27T18:54:14.262Z,69.30
2022-07-27T18:56:40.706Z,69.20
2022-07-27T18:59:07.136Z,69.20
2022-07-27T19:01:33.676Z,69.20
2022-07-27T19:04:00.353Z,69.20
2022-07-27T19:06:28.461Z,69.20
2022-07-27T19:08:54.900Z,69.20
2022-07-27T19:11:21.358Z,69.20
2022-07-27T19:13:47.791Z,69.20
2022-07-27T19:16:14.281Z,69.20
2022-07-27T19:18:40.746Z,69.30
2022-07-27T19:21:07.205Z,68.60
2022-07-27T19:23:33.647Z,69.30
2022-07-27T19:26:00.152Z,69.80
2022-07-27T19:28:26.602Z,69.30
2022-07-27T19:30:53.120Z,69.30
2022-07-27T19:33:19.810Z,69.90
2022-07-27T19:35:46.268Z,69.80
2022-07-27T19:38:12.717Z,69.30
2022-07-27T19:40:44.771Z,69.30
2022-07-27T19:43:12.120Z,69.20
2022-07-27T19:45:38.626Z,69.30
2022-07-27T19:48:05.215Z,69.80
2022-07-27T19:50:31.663Z,68.60
2022-07-27T19:53:01.219Z,69.40
2022-07-27T19:55:27.701Z,69.30
2022-07-27T19:57:54.186Z,69.30
2022-07-27T20:00:20.655Z,69.30
2022-07-27T20:02:47.181Z,68.60
2022-07-27T20:05:13.703Z,69.30
2022-07-27T20:07:40.143Z,70.00
2022-07-27T20:10:06.640Z,69.20
2022-07-27T20:12:33.090Z,69.50
2022-07-27T20:14:59.550Z,68.60
2022-07-27T20:17:25.989Z,69.30
2022-07-27T20:19:52.443Z,69.30
2022-07-27T20:22:18.916Z,69.50
2022-07-27T20:24:45.346Z,69.20
2022-07-27T20:27:12.180Z,69.30
2022-07-27T20:29:38.692Z,69.30
2022-07-27T20:32:05.161Z,69.70
2022-07-27T20:34:31.621Z,69.30
2022-07-27T20:36:58.105Z,69.30
2022-07-27T20:39:25.252Z,69.30
2022-07-27T20:41:52.043Z,69.30
2022-07-27T20:44:18.523Z,69.30
2022-07-27T20:46:45.010Z,69.30
2022-07-27T20:49:11.933Z,69.30
2022-07-27T20:51:38.558Z,69.30
2022-07-27T20:54:05.060Z,69.30
2022-07-27T20:56:31.513Z,69.30
2022-07-27T20:58:58.005Z,69.30
2022-07-27T21:01:24.535Z,69.40
2022-07-27T21:03:51.015Z,69.30
2022-07-27T21:06:17.479Z,69.30
2022-07-27T21:08:46.623Z,69.30
2022-07-27T21:11:13.274Z,69.30
2022-07-27T21:13:39.711Z,69.40
2022-07-27T21:16:06.222Z,69.20
2022-07-27T21:18:32.746Z,69.40
2022-07-27T21:20:59.207Z,69.30
2022-07-27T21:23:25.683Z,69.50
2022-07-27T21:25:52.349Z,69.50
2022-07-27T21:28:23.116Z,69.30
2022-07-27T21:30:51.461Z,69.60
2022-07-27T21:33:17.972Z,69.30
2022-07-27T21:35:44.473Z,69.40
2022-07-27T21:38:10.922Z,69.30
2022-07-27T21:40:37.416Z,69.30
2022-07-27T21:43:03.855Z,69.40
2022-07-27T21:45:30.392Z,69.30
2022-07-27T21:47:56.873Z,69.30
2022-07-27T21:50:23.367Z,69.30
2022-07-27T21:52:49.856Z,69.30
2022-07-27T21:55:18.142Z,69.30
2022-07-27T21:57:49.031Z,69.30
2022-07-27T22:00:15.496Z,69.40
2022-07-27T22:02:41.983Z,69.30
2022-07-27T22:05:08.462Z,69.30
2022-07-27T22:07:34.922Z,69.30
2022-07-27T22:10:01.420Z,69.30
2022-07-27T22:12:27.893Z,69.60
2022-07-27T22:14:54.317Z,69.40
2022-07-27T22:17:20.770Z,69.30
2022-07-27T22:19:47.337Z,69.30
2022-07-27T22:22:13.845Z,69.50
2022-07-27T22:24:40.384Z,69.30
2022-07-27T22:27:06.887Z,69.30
2022-07-27T22:29:34.012Z,69.30
2022-07-27T22:32:01.369Z,69.30
2022-07-27T22:34:27.870Z,69.50
2022-07-27T22:36:54.323Z,69.30
2022-07-27T22:39:20.769Z,69.30
2022-07-27T22:41:47.224Z,69.30
2022-07-27T22:44:13.985Z,69.30
2022-07-27T22:46:42.362Z,69.30
2022-07-27T22:49:08.987Z,69.30
2022-07-27T22:51:50.184Z,69.30
2022-07-27T22:54:19.222Z,69.30
2022-07-27T22:56:45.703Z,69.30
2022-07-27T22:59:12.450Z,69.30
2022-07-27T23:01:44.009Z,68.70
2022-07-27T23:04:14.021Z,69.70
2022-07-27T23:06:40.773Z,69.40
2022-07-27T23:09:07.318Z,69.30
2022-07-27T23:11:33.799Z,69.30
2022-07-27T23:14:00.246Z,69.30
2022-07-27T23:16:26.754Z,69.70
2022-07-27T23:18:53.256Z,69.30
2022-07-27T23:21:19.711Z,69.30
2022-07-27T23:23:53.739Z,69.40
2022-07-27T23:26:20.682Z,69.40
2022-07-27T23:28:49.486Z,69.50
2022-07-27T23:31:16.048Z,69.40
2022-07-27T23:33:42.618Z,69.40
2022-07-27T23:36:09.101Z,69.40
2022-07-27T23:38:35.551Z,69.40
2022-07-27T23:41:02.284Z,68.80
2022-07-27T23:43:28.828Z,69.50
2022-07-27T23:45:55.305Z,69.40
2022-07-27T23:48:21.789Z,69.40
2022-07-27T23:50:51.677Z,69.40
2022-07-27T23:53:18.143Z,69.40
2022-07-27T23:55:44.588Z,69.50
2022-07-27T23:58:11.045Z,69.40
